createdAt,value
2022-08-17T00:05:50.717Z,963.77
2022-08-17T00:15:50.951Z,963.72
2022-08-17T00:25:51.012Z,963.63
2022-08-17T00:35:51.508Z,963.63
2022-08-17T00:45:51.340Z,963.73
2022-08-17T00:55:51.503Z,963.57
2022-08-17T01:05:51.732Z,963.48
2022-08-17T01:15:51.926Z,963.41
2022-08-17T01:25:52.113Z,963.45
2022-08-17T01:35:52.281Z,963.36
2022-08-17T01:46:03.771Z,963.41
2022-08-17T01:55:53.626Z,963.51
2022-08-17T02:05:52.790Z,963.52
2022-08-17T02:15:52.981Z,963.47
2022-08-17T02:25:53.164Z,963.49
2022-08-17T02:35:53.328Z,963.49
2022-08-17T02:45:53.485Z,963.66
2022-08-17T02:53:37.692Z,963.63
2022-08-17T07:28:01.474Z,965.17
2022-08-17T07:36:03.593Z,965.15
2022-08-17T07:46:03.771Z,965.05
2022-08-17T07:56:03.943Z,965.06
2022-08-17T08:06:04.120Z,965.10
2022-08-17T08:16:04.289Z,965.28
2022-08-17T08:26:04.448Z,965.28
2022-08-17T08:36:04.708Z,965.17
2022-08-17T08:46:04.826Z,965.30
2022-08-17T08:56:04.879Z,965.24
2022-08-17T09:06:05.036Z,965.27
2022-08-17T09:16:06.203Z,965.39
2022-08-17T09:26:05.640Z,965.64
2022-08-17T09:36:05.485Z,965.98
2022-08-17T09:46:05.651Z,966.16
2022-08-17T09:56:05.806Z,965.98
2022-08-17T10:06:06.573Z,965.99
2022-08-17T10:16:06.410Z,966.03
2022-08-17T10:26:06.416Z,966.08
2022-08-17T10:36:10.693Z,966.14
2022-08-17T10:46:10.711Z,966.36
2022-08-17T10:56:07.770Z,966.47
2022-08-17T11:06:06.927Z,966.50
2022-08-17T11:16:08.545Z,966.56
2022-08-17T11:26:07.318Z,966.42
2022-08-17T11:36:07.715Z,966.53
2022-08-17T11:46:07.656Z,966.61
2022-08-17T11:56:07.842Z,966.77
2022-08-17T12:06:08.009Z,966.73
2022-08-17T12:16:08.211Z,966.71
2022-08-17T12:26:08.382Z,966.53
2022-08-17T12:36:08.576Z,966.40
2022-08-17T12:46:12.921Z,965.88
2022-08-17T12:56:09.931Z,965.85
2022-08-17T13:06:09.100Z,965.67
2022-08-17T13:16:09.267Z,965.79
2022-08-17T13:26:09.542Z,965.60
2022-08-17T13:36:09.818Z,965.58
2022-08-17T13:46:10.097Z,965.42
2022-08-17T13:56:37.655Z,965.38
2022-08-17T14:06:11.275Z,965.23
2022-08-17T14:16:10.241Z,965.05
2022-08-17T14:26:10.433Z,964.80
2022-08-17T14:36:10.870Z,964.70
2022-08-17T14:46:10.851Z,964.77
2022-08-17T14:56:11.043Z,964.78
2022-08-17T15:06:11.417Z,964.78
2022-08-17T15:16:11.682Z,964.74
2022-08-17T15:26:11.542Z,964.68
2022-08-17T15:36:11.945Z,964.65
2022-08-17T15:46:11.897Z,964.60
2022-08-17T15:56:12.103Z,964.39
2022-08-17T16:06:12.281Z,964.44
2022-08-17T16:16:12.960Z,964.24
2022-08-17T16:26:12.713Z,964.04
2022-08-17T16:36:12.782Z,964.20
2022-08-17T16:46:12.985Z,963.97
2022-08-17T16:56:13.170Z,964.01
2022-08-17T17:06:13.588Z,964.05
2022-08-17T17:16:13.577Z,963.84
2022-08-17T17:26:14.077Z,963.91
2022-08-17T17:36:14.037Z,963.83
2022-08-17T17:46:27.040Z,963.84
2022-08-17T17:56:40.362Z,963.79
2022-08-17T18:06:15.468Z,963.93
2022-08-17T18:16:14.691Z,963.96
2022-08-17T18:26:14.877Z,964.17
2022-08-17T18:36:15.038Z,964.19
2022-08-17T18:46:15.242Z,964.24
2022-08-17T18:56:16.429Z,964.20
2022-08-17T19:06:15.606Z,964.41
2022-08-17T19:16:16.095Z,964.34
2022-08-17T19:26:50.858Z,964.37
2022-08-17T19:36:17.624Z,964.50
2022-08-17T19:46:16.364Z,964.49
2022-08-17T19:56:16.550Z,964.43
2022-08-17T20:06:16.981Z,964.35
2022-08-17T20:16:16.938Z,964.57
2022-08-17T20:26:19.247Z,964.64
2022-08-17T20:36:17.300Z,964.63
2022-08-17T20:46:17.478Z,964.71
2022-08-17T20:56:17.654Z,964.78
2022-08-17T21:06:17.963Z,964.87
2022-08-17T21:16:17.986Z,965.00
2022-08-17T21:26:18.157Z,965.23
2022-08-17T21:36:18.358Z,965.59
2022-08-17T21:46:18.533Z,966.29
2022-08-17T21:56:18.731Z,966.65
2022-08-17T22:06:18.903Z,966.99
2022-08-17T22:16:28.829Z,967.17
2022-08-17T22:26:20.238Z,967.36
2022-08-17T22:36:19.425Z,967.44
2022-08-17T22:46:19.523Z,967.63
2022-08-17T22:56:19.694Z,967.66
2022-08-17T23:06:19.916Z,967.63
2022-08-17T23:16:20.069Z,967.66
2022-08-17T23:26:20.227Z,967.60
2022-08-17T23:36:20.387Z,967.63
2022-08-17T23:46:20.565Z,967.60
2022-08-17T23:56:20.717Z,967.70
